Strona główna
METAR-TAF:

METAR-TAF

Lotnisko :

Dübendorf, Szwajcaria

Szerokość geograficzna: 47-23-55N, Długość geograficzna: 8-38-53E, wysokość: 448 m

Aktualna obserwacja pogody

Raport powstał 37 minut temu, godzina 22:20 UTC
Wiatr 2 kt z kierunków zmiennych
Temperatura 6°C
Wilgotność 70%
Ciśnienie 1027 hPa
Widzialność 10 km lub więcej

METAR: LSMD 062220Z AUTO VRB02KT 9999NDV NCD 06/01 Q1027 RMK

czas: 00:57 (22:57 UTC)


TAF: brakujący

Obserwacja i prognoza pogody dla ponad 4000 lotnisk (raport METAR i TAF).

Dostępne stacje oznaczono żółtymi i czerwonymi punktami na mapie.

Najedź kursorem aby zobaczyć nazwę stacji.

Kliknij aby zobaczyć obserwacje i prognozy pogody.

Aby zmienić mapę: kliknij na zielony przycisk z czarnym krzyżykiem, aby powiększyć; na zielony przycisk z myślnikiem, aby pomniejszyć; na zielone strzałki, aby przejść do map sąsiednich.


METAR-TAF: